createdAt,value
2022-08-17T00:00:34.472Z,98149.75
2022-08-17T00:03:26.166Z,98157.38
2022-08-17T00:06:03.178Z,98145.75
2022-08-17T00:08:38.219Z,98148.84
2022-08-17T00:11:10.210Z,98145.69
2022-08-17T00:13:47.164Z,98149.59
2022-08-17T00:16:51.953Z,98142.00
2022-08-17T00:19:15.125Z,98142.53
2022-08-17T00:22:33.121Z,98146.41
2022-08-17T00:24:34.237Z,98144.22
2022-08-17T00:27:01.422Z,98148.28
2022-08-17T00:29:28.287Z,98138.84
2022-08-17T00:31:55.357Z,98140.03
2022-08-17T00:34:22.243Z,98145.13
2022-08-17T00:36:49.069Z,98146.81
2022-08-17T00:39:16.092Z,98140.03
2022-08-17T00:41:43.297Z,98137.03
2022-08-17T00:44:12.193Z,98143.25
2022-08-17T00:46:42.436Z,98141.41
2022-08-17T00:49:12.805Z,98141.94
2022-08-17T00:52:11.693Z,98141.59
2022-08-17T00:54:43.416Z,98141.44
2022-08-17T00:57:30.803Z,98139.94
2022-08-17T01:00:07.170Z,98145.50
2022-08-17T01:02:43.192Z,98148.22
2022-08-17T01:05:23.975Z,98145.84
2022-08-17T01:07:53.684Z,98141.47
2022-08-17T01:10:59.259Z,98149.53
2022-08-17T01:13:28.680Z,98149.38
2022-08-17T01:16:04.580Z,98140.13
2022-08-17T01:18:32.881Z,98138.63
2022-08-17T01:21:24.601Z,98133.56
2022-08-17T01:23:51.711Z,98142.50
2022-08-17T01:26:20.190Z,98147.03
2022-08-17T01:28:54.542Z,98144.69
2022-08-17T01:31:28.699Z,98141.47
2022-08-17T01:34:00.269Z,98147.88
2022-08-17T01:36:29.024Z,98147.03
2022-08-17T01:38:56.280Z,98148.69
2022-08-17T01:41:24.530Z,98147.16
2022-08-17T01:43:59.042Z,98147.00
2022-08-17T01:46:31.228Z,98159.66
2022-08-17T01:48:58.653Z,98153.06
2022-08-17T01:51:32.927Z,98154.56
2022-08-17T01:54:15.183Z,98155.06
2022-08-17T01:56:47.774Z,98160.28
2022-08-17T01:59:18.278Z,98155.22
2022-08-17T02:01:47.202Z,98168.88
2022-08-17T02:04:15.659Z,98155.75
2022-08-17T02:06:53.698Z,98148.31
2022-08-17T02:09:29.935Z,98155.72
2022-08-17T02:12:37.391Z,98156.38
2022-08-17T02:14:49.143Z,98153.00
2022-08-17T02:17:16.223Z,98159.75
2022-08-17T02:19:43.287Z,98157.22
2022-08-17T02:22:10.452Z,98160.94
2022-08-17T02:24:59.869Z,98157.72
2022-08-17T02:27:26.553Z,98153.34
2022-08-17T02:29:53.696Z,98157.03
2022-08-17T02:32:27.821Z,98153.97
2022-08-17T02:34:59.838Z,98160.72
2022-08-17T02:37:29.897Z,98161.72
2022-08-17T02:39:58.784Z,98162.22
2022-08-17T02:42:39.852Z,98155.66
2022-08-17T02:45:18.767Z,98156.84
2022-08-17T02:47:47.088Z,98160.19
2022-08-17T02:50:18.435Z,98162.66
2022-08-17T02:52:55.258Z,98167.34
2022-08-17T02:55:37.410Z,98159.44
2022-08-17T02:58:05.400Z,98159.28
2022-08-17T03:00:42.158Z,98157.41
2022-08-17T03:03:13.751Z,98153.38
2022-08-17T03:05:40.805Z,98159.72
2022-08-17T03:08:13.118Z,98147.59
2022-08-17T03:10:41.614Z,98146.06
2022-08-17T03:13:09.075Z,98141.72
2022-08-17T03:15:36.092Z,98149.06
2022-08-17T03:18:07.452Z,98152.13
2022-08-17T03:20:46.893Z,98150.56
2022-08-17T03:23:13.904Z,98150.06
2022-08-17T03:25:44.087Z,98151.56
2022-08-17T03:28:12.155Z,98152.53
2022-08-17T03:30:40.596Z,98150.31
2022-08-17T03:33:12.290Z,98147.78
2022-08-17T03:35:41.063Z,98157.88
2022-08-17T03:38:11.329Z,98159.38
2022-08-17T03:40:56.909Z,98153.78
2022-08-17T03:43:30.910Z,98161.47
2022-08-17T03:46:34.549Z,98157.09
2022-08-17T03:49:24.720Z,98156.56
2022-08-17T03:52:11.703Z,98151.31
2022-08-17T03:54:57.886Z,98156.63
2022-08-17T03:57:26.103Z,98154.44
2022-08-17T03:59:55.257Z,98156.41
2022-08-17T04:02:30.190Z,98146.84
2022-08-17T04:04:58.568Z,98148.53
2022-08-17T04:07:29.743Z,98153.72
2022-08-17T04:09:58.171Z,98141.78
2022-08-17T04:12:30.819Z,98151.16
2022-08-17T04:14:58.650Z,98151.16
2022-08-17T04:17:28.504Z,98152.31
2022-08-17T04:19:56.828Z,98148.94
2022-08-17T04:22:33.343Z,98147.25
2022-08-17T04:25:08.653Z,98153.31
2022-08-17T04:27:36.190Z,98153.00
2022-08-17T04:30:07.287Z,98158.34
2022-08-17T04:33:06.270Z,98161.19
2022-08-17T04:35:48.295Z,98160.69
2022-08-17T04:38:21.292Z,98169.59
2022-08-17T04:41:07.891Z,98166.53
2022-08-17T04:43:37.831Z,98158.47
2022-08-17T04:46:10.710Z,98164.16
2022-08-17T04:48:42.869Z,98174.59
2022-08-17T04:51:30.436Z,98184.88
2022-08-17T04:54:02.726Z,98183.41
2022-08-17T04:56:31.632Z,98188.66
2022-08-17T04:59:05.634Z,98191.34
2022-08-17T05:01:35.869Z,98195.78
2022-08-17T05:04:33.565Z,98196.94
2022-08-17T05:06:59.091Z,98190.41
2022-08-17T05:09:27.176Z,98194.16
2022-08-17T05:11:55.324Z,98194.41
2022-08-17T05:14:32.463Z,98205.84
2022-08-17T05:17:01.338Z,98204.59
2022-08-17T05:19:28.968Z,98198.22
2022-08-17T05:21:55.755Z,98201.81
2022-08-17T05:24:42.673Z,98203.59
2022-08-17T05:27:09.658Z,98199.59
2022-08-17T05:29:41.905Z,98207.34
2022-08-17T05:32:39.571Z,98208.69
2022-08-17T05:35:00.362Z,98210.19
2022-08-17T05:37:27.584Z,98207.41
2022-08-17T05:39:54.726Z,98213.16
2022-08-17T05:42:22.151Z,98215.72
2022-08-17T05:44:49.033Z,98222.06
2022-08-17T05:47:16.356Z,98218.91
2022-08-17T05:49:43.461Z,98219.97
2022-08-17T05:52:26.420Z,98222.34
2022-08-17T05:55:18.051Z,98217.44
2022-08-17T05:57:57.735Z,98213.00
2022-08-17T06:00:37.055Z,98216.69
2022-08-17T06:03:43.203Z,98217.72
2022-08-17T06:06:48.092Z,98222.88
2022-08-17T06:09:45.718Z,98225.88
2022-08-17T06:13:03.061Z,98231.88
2022-08-17T06:16:02.027Z,98216.78
2022-08-17T06:18:48.660Z,98223.09
2022-08-17T06:21:19.911Z,98226.16
2022-08-17T06:24:08.017Z,98224.81
2022-08-17T06:26:43.448Z,98229.44
2022-08-17T06:29:24.871Z,98224.72
2022-08-17T06:31:52.055Z,98223.38
2022-08-17T06:34:21.743Z,98229.13
2022-08-17T06:37:27.430Z,98228.63
2022-08-17T06:40:12.767Z,98220.38
2022-08-17T06:43:05.860Z,98224.94
2022-08-17T06:45:51.725Z,98221.22
2022-08-17T06:49:11.695Z,98225.28
2022-08-17T06:51:51.525Z,98229.88
2022-08-17T06:54:41.431Z,98222.69
2022-08-17T06:57:24.856Z,98230.44
2022-08-17T07:00:04.275Z,98222.34
2022-08-17T07:03:01.209Z,98234.75
2022-08-17T07:05:47.681Z,98234.09
2022-08-17T07:08:38.353Z,98241.19
2022-08-17T07:11:20.982Z,98239.03
2022-08-17T07:14:01.395Z,98238.03
2022-08-17T07:16:56.255Z,98234.53
2022-08-17T07:19:31.855Z,98228.50
2022-08-17T07:22:10.710Z,98230.50
2022-08-17T07:25:00.357Z,98224.16
2022-08-17T07:27:46.311Z,98223.63
2022-08-17T07:30:28.399Z,98220.44
2022-08-17T07:33:13.722Z,98226.88
2022-08-17T07:35:43.886Z,98233.00
2022-08-17T07:38:31.435Z,98230.44
2022-08-17T07:41:02.208Z,98232.66
2022-08-17T07:43:40.151Z,98230.44
2022-08-17T07:47:05.351Z,98231.50
2022-08-17T07:49:32.251Z,98232.66
2022-08-17T07:52:47.885Z,98232.66
2022-08-17T07:54:58.668Z,98238.72
2022-08-17T07:57:36.146Z,98246.84
2022-08-17T08:00:16.315Z,98247.16
2022-08-17T08:02:59.639Z,98239.22
2022-08-17T08:05:49.879Z,98240.88
2022-08-17T08:08:42.691Z,98240.88
2022-08-17T08:11:15.461Z,98240.19
2022-08-17T08:13:45.793Z,98239.31
2022-08-17T08:16:30.907Z,98239.28
2022-08-17T08:19:01.713Z,98235.53
2022-08-17T08:21:52.227Z,98234.03
2022-08-17T08:24:45.759Z,98236.19
2022-08-17T08:27:35.915Z,98235.31
2022-08-17T08:30:19.675Z,98234.44
2022-08-17T08:33:44.025Z,98240.81
2022-08-17T08:36:57.139Z,98236.03
2022-08-17T08:40:01.876Z,98226.00
2022-08-17T08:43:09.332Z,98230.84
2022-08-17T08:46:25.105Z,98232.97
2022-08-17T08:53:16.170Z,98228.97
2022-08-17T08:55:59.132Z,98233.69
2022-08-17T08:58:41.251Z,98236.31
2022-08-17T09:01:25.571Z,98236.44
2022-08-17T09:04:24.568Z,98240.94
2022-08-17T09:07:29.575Z,98246.75
2022-08-17T09:10:25.514Z,98236.00
2022-08-17T09:13:16.916Z,98242.56
2022-08-17T09:15:57.377Z,98240.16
2022-08-17T09:19:02.955Z,98233.97
2022-08-17T09:21:45.778Z,98229.69
2022-08-17T09:24:57.157Z,98231.81
2022-08-17T09:27:35.371Z,98231.72
2022-08-17T09:30:09.659Z,98235.03
2022-08-17T09:32:44.276Z,98230.56
2022-08-17T09:35:32.902Z,98225.41
2022-08-17T09:38:34.473Z,98221.91
2022-08-17T09:41:29.117Z,98225.34
2022-08-17T09:44:25.138Z,98229.44
2022-08-17T09:47:05.675Z,98223.06
2022-08-17T09:49:47.072Z,98231.28
2022-08-17T09:52:28.358Z,98227.16
2022-08-17T09:54:59.385Z,98228.72
2022-08-17T09:57:50.415Z,98220.47
2022-08-17T10:00:34.685Z,98226.78
2022-08-17T10:03:22.815Z,98226.41
2022-08-17T10:06:21.721Z,98225.84
2022-08-17T10:09:18.473Z,98213.56
2022-08-17T10:12:30.277Z,98219.03
2022-08-17T10:15:07.963Z,98221.56
2022-08-17T10:18:01.356Z,98221.16
2022-08-17T10:20:42.949Z,98208.28
2022-08-17T10:23:48.916Z,98215.66
2022-08-17T10:26:28.158Z,98204.94
2022-08-17T10:29:24.472Z,98200.28
2022-08-17T10:32:09.194Z,98207.97
2022-08-17T10:35:04.196Z,98211.59
2022-08-17T10:37:37.624Z,98198.88
2022-08-17T10:40:32.492Z,98214.97
2022-08-17T10:43:20.654Z,98204.81
2022-08-17T10:46:09.234Z,98208.81
2022-08-17T10:49:13.658Z,98201.72
2022-08-17T10:51:42.071Z,98201.50
2022-08-17T10:54:24.403Z,98203.59
2022-08-17T10:56:55.274Z,98205.09
2022-08-17T10:59:37.127Z,98206.22
2022-08-17T11:02:14.806Z,98197.72
2022-08-17T11:04:59.903Z,98193.75
2022-08-17T11:07:53.979Z,98196.94
2022-08-17T11:10:49.910Z,98199.06
2022-08-17T11:13:49.596Z,98202.38
2022-08-17T11:16:48.051Z,98199.41
2022-08-17T11:20:12.656Z,98194.41
2022-08-17T11:23:03.863Z,98186.66
2022-08-17T11:25:46.963Z,98179.78
2022-08-17T11:28:23.748Z,98182.69
2022-08-17T11:31:05.566Z,98183.13
2022-08-17T11:33:36.848Z,98171.84
2022-08-17T11:36:46.463Z,98168.94
2022-08-17T11:39:13.364Z,98165.25
2022-08-17T11:42:00.108Z,98161.50
2022-08-17T11:44:58.780Z,98160.88
2022-08-17T11:48:27.824Z,98164.00
2022-08-17T11:51:36.447Z,98165.91
2022-08-17T11:57:02.254Z,98173.44
2022-08-17T11:59:36.486Z,98165.72
2022-08-17T12:02:35.048Z,98163.63
2022-08-17T12:05:16.717Z,98167.00
2022-08-17T12:07:56.259Z,98163.25
2022-08-17T12:10:32.012Z,98164.50
2022-08-17T12:13:10.878Z,98153.88
2022-08-17T12:15:49.027Z,98154.75
2022-08-17T12:18:49.790Z,98153.28
2022-08-17T12:21:23.653Z,98152.69
2022-08-17T12:24:37.578Z,98152.50
2022-08-17T12:27:09.438Z,98143.31
2022-08-17T12:29:42.731Z,98157.09
2022-08-17T12:32:18.286Z,98156.94
2022-08-17T12:34:49.375Z,98156.72
2022-08-17T12:37:26.215Z,98160.06
2022-08-17T12:40:17.513Z,98148.59
2022-08-17T12:43:00.906Z,98147.56
2022-08-17T12:45:36.544Z,98147.56
2022-08-17T12:48:21.845Z,98136.25
2022-08-17T12:50:50.901Z,98146.53
2022-08-17T12:53:30.093Z,98138.59
2022-08-17T12:56:00.305Z,98135.25
2022-08-17T12:58:36.809Z,98132.13
2022-08-17T13:01:15.309Z,98135.69
2022-08-17T13:03:49.397Z,98126.91
2022-08-17T13:06:36.609Z,98131.69
2022-08-17T13:09:40.284Z,98137.38
2022-08-17T13:12:08.149Z,98144.28
2022-08-17T13:14:35.442Z,98139.69
2022-08-17T13:17:09.643Z,98137.56
2022-08-17T13:19:50.878Z,98135.25
2022-08-17T13:22:25.031Z,98135.72
2022-08-17T13:24:58.878Z,98127.56
2022-08-17T13:27:29.022Z,98128.13
2022-08-17T13:30:02.296Z,98122.28
2022-08-17T13:32:48.672Z,98118.50
2022-08-17T13:35:39.175Z,98123.94
2022-08-17T13:38:49.539Z,98119.56
2022-08-17T13:41:37.366Z,98119.97
2022-08-17T13:44:39.436Z,98117.03
2022-08-17T13:47:18.981Z,98119.56
2022-08-17T13:49:49.040Z,98123.31
2022-08-17T13:52:39.105Z,98124.19
2022-08-17T13:55:18.850Z,98123.72
2022-08-17T13:57:50.489Z,98131.91
2022-08-17T14:00:36.720Z,98135.69
2022-08-17T14:03:05.805Z,98129.41
2022-08-17T14:05:33.848Z,98128.78
2022-08-17T14:08:06.416Z,98134.22
2022-08-17T14:10:36.470Z,98139.69
2022-08-17T14:13:05.686Z,98130.88
2022-08-17T14:15:55.635Z,98141.34
2022-08-17T14:18:55.578Z,98147.84
2022-08-17T14:21:09.752Z,98146.56
2022-08-17T14:23:37.868Z,98150.56
2022-08-17T14:26:05.571Z,98147.63
2022-08-17T14:28:32.654Z,98151.97
2022-08-17T14:31:01.247Z,98148.41
2022-08-17T14:33:29.079Z,98141.94
2022-08-17T14:35:57.669Z,98124.94
2022-08-17T14:38:24.897Z,98118.44
2022-08-17T14:40:52.608Z,98117.16
2022-08-17T14:43:20.954Z,98110.44
2022-08-17T14:45:47.887Z,98099.75
2022-08-17T14:48:14.893Z,98098.94
2022-08-17T14:50:44.268Z,98102.69
2022-08-17T14:53:16.145Z,98101.03
2022-08-17T14:55:45.816Z,98104.81
2022-08-17T14:58:14.086Z,98111.50
2022-08-17T15:00:43.023Z,98118.66
2022-08-17T15:03:11.493Z,98118.22
2022-08-17T15:05:39.356Z,98114.44
2022-08-17T15:08:06.840Z,98116.13
2022-08-17T15:10:34.436Z,98117.81
2022-08-17T15:13:01.973Z,98111.88
2022-08-17T15:15:30.059Z,98119.25
2022-08-17T15:17:58.256Z,98117.13
2022-08-17T15:20:29.870Z,98119.03
2022-08-17T15:22:58.966Z,98112.97
2022-08-17T15:25:31.910Z,98105.41
2022-08-17T15:28:01.097Z,98102.25
2022-08-17T15:30:29.056Z,98103.69
2022-08-17T15:33:01.983Z,98099.28
2022-08-17T15:35:33.286Z,98093.84
2022-08-17T15:38:11.672Z,98094.03
2022-08-17T15:40:44.868Z,98087.94
2022-08-17T15:43:32.493Z,98083.94
2022-08-17T15:46:12.290Z,98082.47
2022-08-17T15:48:42.756Z,98082.47
2022-08-17T15:51:24.119Z,98074.28
2022-08-17T15:54:04.589Z,98080.78
2022-08-17T15:56:47.019Z,98086.00
2022-08-17T15:59:13.935Z,98084.34
2022-08-17T16:03:06.716Z,98074.91
2022-08-17T16:04:30.685Z,98076.69
2022-08-17T16:07:00.003Z,98077.75
2022-08-17T16:09:27.572Z,98074.56
2022-08-17T16:11:56.109Z,98080.44
2022-08-17T16:14:32.441Z,98084.34
2022-08-17T16:17:02.881Z,98072.81
2022-08-17T16:19:29.706Z,98078.22
2022-08-17T16:21:56.759Z,98078.09
2022-08-17T16:24:23.810Z,98077.72
2022-08-17T16:26:50.788Z,98075.19
2022-08-17T16:29:17.909Z,98072.94
2022-08-17T16:31:44.910Z,98068.00
2022-08-17T16:34:16.400Z,98067.69
2022-08-17T16:36:55.779Z,98074.72
2022-08-17T16:39:27.174Z,98079.06
2022-08-17T16:41:55.974Z,98078.09
2022-08-17T16:44:23.020Z,98071.06
2022-08-17T16:46:50.451Z,98064.66
2022-08-17T16:49:35.728Z,98059.88
2022-08-17T16:52:10.691Z,98064.75
2022-08-17T16:54:43.760Z,98058.50
2022-08-17T16:57:17.565Z,98058.13
2022-08-17T16:59:48.093Z,98047.66
2022-08-17T17:02:24.417Z,98060.44
2022-08-17T17:05:42.945Z,98064.84
2022-08-17T17:08:33.908Z,98061.94
2022-08-17T17:11:13.823Z,98077.50
2022-08-17T17:13:56.862Z,98071.25
2022-08-17T17:16:35.922Z,98067.47
2022-08-17T17:19:34.174Z,98076.28
2022-08-17T17:22:45.223Z,98071.91
2022-08-17T17:25:45.238Z,98079.06
2022-08-17T17:28:39.172Z,98077.81
2022-08-17T17:31:15.653Z,98081.38
2022-08-17T17:33:52.618Z,98092.06
2022-08-17T17:36:39.740Z,98101.31
2022-08-17T17:39:44.144Z,98100.31
2022-08-17T17:42:19.982Z,98110.13
2022-08-17T17:44:59.772Z,98116.22
2022-08-17T17:47:29.361Z,98120.63
2022-08-17T17:49:56.290Z,98116.41
2022-08-17T17:52:32.360Z,98117.47
2022-08-17T17:55:17.290Z,98117.47
2022-08-17T17:58:20.755Z,98112.84
2022-08-17T18:01:00.534Z,98111.59
2022-08-17T18:04:17.028Z,98125.00
2022-08-17T18:07:28.696Z,98118.72
2022-08-17T18:10:30.090Z,98118.72
2022-08-17T18:13:17.762Z,98122.25
2022-08-17T18:15:52.226Z,98130.00
2022-08-17T18:18:37.791Z,98118.88
2022-08-17T18:21:38.240Z,98134.97
2022-08-17T18:24:10.524Z,98128.28
2022-08-17T18:27:02.301Z,98124.47
2022-08-17T18:29:45.642Z,98121.53
2022-08-17T18:32:25.740Z,98119.44
2022-08-17T18:35:09.194Z,98116.47
2022-08-17T18:38:20.373Z,98115.63
2022-08-17T18:41:03.954Z,98122.53
2022-08-17T18:43:52.933Z,98115.81
2022-08-17T18:46:30.061Z,98127.53
2022-08-17T18:49:07.498Z,98125.19
2022-08-17T18:51:43.295Z,98124.94
2022-08-17T18:54:24.034Z,98129.28
2022-08-17T18:56:58.974Z,98134.50
2022-08-17T18:59:35.181Z,98128.00
2022-08-17T19:02:09.976Z,98130.91
2022-08-17T19:05:08.590Z,98130.69
2022-08-17T19:07:45.995Z,98133.16
2022-08-17T19:10:46.438Z,98130.00
2022-08-17T19:13:25.630Z,98126.84
2022-08-17T19:16:18.825Z,98116.59
2022-08-17T19:18:56.039Z,98119.69
2022-08-17T19:21:34.771Z,98113.00
2022-08-17T19:24:24.817Z,98109.84
2022-08-17T19:26:57.568Z,98107.53
2022-08-17T19:29:54.846Z,98102.28
2022-08-17T19:32:28.988Z,98098.91
2022-08-17T19:34:57.389Z,98097.41
2022-08-17T19:38:14.585Z,98102.41
2022-08-17T19:41:07.394Z,98099.06
2022-08-17T19:43:55.229Z,98101.16
2022-08-17T19:46:59.512Z,98105.09
2022-08-17T19:49:33.374Z,98093.59
2022-08-17T19:52:46.945Z,98093.78
2022-08-17T19:55:43.909Z,98087.72
2022-08-17T19:58:39.730Z,98090.81
2022-08-17T20:01:16.796Z,98089.34
2022-08-17T20:04:13.708Z,98093.28
2022-08-17T20:06:49.308Z,98084.91
2022-08-17T20:09:41.185Z,98082.78
2022-08-17T20:12:14.306Z,98089.03
2022-08-17T20:14:55.817Z,98091.13
2022-08-17T20:17:31.247Z,98090.69
2022-08-17T20:20:19.834Z,98086.50
2022-08-17T20:23:15.563Z,98089.59
2022-08-17T20:26:19.144Z,98080.81
2022-08-17T20:29:13.904Z,98078.50
2022-08-17T20:31:56.220Z,98080.78
2022-08-17T20:34:33.412Z,98078.44
2022-08-17T20:37:28.160Z,98068.78
2022-08-17T20:39:55.020Z,98070.03
2022-08-17T20:42:22.084Z,98071.88
2022-08-17T20:44:55.618Z,98079.56
2022-08-17T20:47:55.367Z,98069.97
2022-08-17T20:50:43.706Z,98071.00
2022-08-17T20:53:32.255Z,98071.19
2022-08-17T20:55:59.480Z,98073.25
2022-08-17T20:58:29.961Z,98081.59
2022-08-17T21:00:58.981Z,98078.22
2022-08-17T21:03:50.481Z,98076.53
2022-08-17T21:06:20.170Z,98085.09
2022-08-17T21:09:18.758Z,98083.59
2022-08-17T21:12:04.568Z,98090.66
2022-08-17T21:14:54.218Z,98099.34
2022-08-17T21:17:42.588Z,98109.09
2022-08-17T21:20:34.710Z,98114.63
2022-08-17T21:23:32.268Z,98123.53
2022-08-17T21:26:17.698Z,98125.13
2022-08-17T21:29:29.670Z,98133.16
2022-08-17T21:32:01.768Z,98123.06
2022-08-17T21:34:34.737Z,98128.50
2022-08-17T21:37:20.227Z,98133.63
2022-08-17T21:39:55.821Z,98135.69
2022-08-17T21:42:32.138Z,98141.69
2022-08-17T21:45:25.344Z,98140.38
2022-08-17T21:48:11.165Z,98148.69
2022-08-17T21:50:41.768Z,98149.91
2022-08-17T21:53:22.207Z,98155.91
2022-08-17T21:55:50.431Z,98152.69
2022-08-17T21:58:40.359Z,98147.22
2022-08-17T22:01:21.675Z,98150.13
2022-08-17T22:04:02.220Z,98149.63
2022-08-17T22:06:56.772Z,98156.28
2022-08-17T22:09:47.429Z,98150.56
2022-08-17T22:12:26.698Z,98153.84
2022-08-17T22:15:02.389Z,98147.75
2022-08-17T22:17:36.530Z,98145.59
2022-08-17T22:20:20.593Z,98141.41
2022-08-17T22:23:08.944Z,98140.06
2022-08-17T22:25:41.231Z,98136.72
2022-08-17T22:28:12.664Z,98130.47
2022-08-17T22:30:59.156Z,98126.25
2022-08-17T22:34:00.083Z,98129.13
2022-08-17T22:36:38.984Z,98117.00
2022-08-17T22:39:08.442Z,98122.97
2022-08-17T22:41:48.145Z,98119.63
2022-08-17T22:44:31.786Z,98115.13
2022-08-17T22:47:11.525Z,98108.41
2022-08-17T22:49:58.934Z,98110.81
2022-08-17T22:53:16.051Z,98103.72
2022-08-17T22:56:14.588Z,98107.00
2022-08-17T22:59:14.435Z,98100.44
2022-08-17T23:01:45.439Z,98104.38
2022-08-17T23:04:36.995Z,98103.19
2022-08-17T23:07:04.010Z,98111.69
2022-08-17T23:09:30.990Z,98111.84
2022-08-17T23:11:58.954Z,98108.88
2022-08-17T23:14:31.496Z,98109.22
2022-08-17T23:16:59.452Z,98107.88
2022-08-17T23:19:28.553Z,98119.91
2022-08-17T23:21:57.225Z,98101.81
2022-08-17T23:24:35.679Z,98105.19
2022-08-17T23:27:04.687Z,98098.94
2022-08-17T23:29:31.773Z,98099.13
2022-08-17T23:32:01.372Z,98102.88
2022-08-17T23:34:28.859Z,98101.81
2022-08-17T23:36:56.195Z,98113.13
2022-08-17T23:39:28.122Z,98113.97
2022-08-17T23:41:58.282Z,98111.09
2022-08-17T23:44:27.171Z,98103.16
2022-08-17T23:46:54.999Z,98105.00
2022-08-17T23:49:23.440Z,98109.22
2022-08-17T23:51:55.155Z,98104.00
2022-08-17T23:54:43.770Z,98104.34
2022-08-17T23:57:17.443Z,98102.88
2022-08-17T23:59:45.425Z,98099.66
